Time;durP1;ratioP1;P1;durP2;ratioP2;P2;SDS_P1;SDS_P2;PMS_P1;PMS_P2;Temp;Humidity;BMP_temperature;BMP_pressure;BME280_temperature;BME280_humidity;BME280_pressure;Samples;Min_cycle;Max_cycle;Signal;HPM_P1;HPM_P2
2023/05/15 04:00:11;;;;;;;7.55;5.20;;;12.80;99.90;;;;;;5974592;23;20577;31
2023/05/15 04:02:37;;;;;;;9.13;5.75;;;12.70;99.90;;;;;;4950723;29;19923;-72
2023/05/15 04:05:04;;;;;;;8.98;6.38;;;12.60;99.90;;;;;;4939674;29;20432;-72
2023/05/15 04:07:31;;;;;;;9.38;6.57;;;12.60;99.90;;;;;;4940906;29;20473;-72
2023/05/15 04:10:00;;;;;;;7.78;6.25;;;12.70;99.90;;;;;;4939074;29;20130;-72
2023/05/15 04:12:29;;;;;;;9.98;6.00;;;12.70;99.90;;;;;;4972483;28;20519;-72
2023/05/15 04:14:57;;;;;;;7.93;5.95;;;12.70;99.90;;;;;;4960065;28;20034;-73
2023/05/15 04:17:23;;;;;;;8.48;6.43;;;12.70;99.90;;;;;;4959346;28;20038;-73
2023/05/15 04:19:49;;;;;;;8.23;6.23;;;12.80;99.90;;;;;;4963423;28;20035;-72
2023/05/15 04:22:14;;;;;;;10.83;6.30;;;12.60;99.90;;;;;;4961002;29;20081;-73
2023/05/15 04:24:40;;;;;;;9.73;6.10;;;12.60;99.90;;;;;;4960092;29;20034;-73
2023/05/15 04:27:05;;;;;;;9.93;6.33;;;12.60;99.90;;;;;;4957543;29;20035;-73
2023/05/15 04:29:31;;;;;;;7.78;5.95;;;12.80;99.90;;;;;;4957985;28;20480;-73
2023/05/15 04:31:57;;;;;;;8.43;6.28;;;12.80;99.90;;;;;;4960011;28;20024;-73
2023/05/15 04:34:22;;;;;;;10.50;5.93;;;12.80;99.90;;;;;;4958828;28;20034;-72
2023/05/15 04:36:48;;;;;;;6.77;5.37;;;12.70;99.90;;;;;;4979436;28;20063;-74
2023/05/15 04:39:13;;;;;;;8.67;6.40;;;12.70;99.90;;;;;;4976145;28;20086;-74
2023/05/15 04:41:39;;;;;;;8.00;5.60;;;12.80;99.90;;;;;;4976831;28;20051;-74
2023/05/15 04:44:05;;;;;;;14.13;5.87;;;12.90;99.90;;;;;;4961543;29;20034;-74
2023/05/15 04:46:33;;;;;;;9.80;5.95;;;12.90;99.90;;;;;;4956901;29;20042;-73
2023/05/15 04:48:59;;;;;;;9.63;6.03;;;12.80;99.90;;;;;;4957578;28;20034;-74
2023/05/15 04:51:24;;;;;;;10.93;6.07;;;12.80;99.90;;;;;;4955557;29;20024;-73
2023/05/15 04:53:50;;;;;;;7.93;6.00;;;12.80;99.90;;;;;;4956069;29;20476;-74
2023/05/15 04:56:16;;;;;;;8.47;5.87;;;12.80;99.90;;;;;;4956151;29;20031;-75
2023/05/15 04:58:41;;;;;;;9.37;6.10;;;12.80;99.90;;;;;;4956968;29;20037;-75
2023/05/15 05:01:07;;;;;;;8.23;6.83;;;12.80;99.90;;;;;;4955598;29;20544;-75
2023/05/15 05:03:32;;;;;;;10.60;6.77;;;12.80;99.90;;;;;;4940915;29;20107;-74
2023/05/15 05:05:58;;;;;;;8.30;6.17;;;12.90;99.90;;;;;;4938207;29;20034;-75
2023/05/15 05:08:24;;;;;;;8.40;6.70;;;12.90;99.90;;;;;;4938267;29;20028;-73
2023/05/15 05:10:55;;;;;;;8.93;6.82;;;12.70;99.90;;;;;;4938542;29;20090;-74
2023/05/15 05:13:20;;;;;;;11.98;6.57;;;12.70;99.90;;;;;;4937714;29;20028;-74
2023/05/15 05:15:49;;;;;;;9.63;6.80;;;12.80;99.90;;;;;;4937961;29;20027;-74
2023/05/15 05:18:15;;;;;;;9.52;6.63;;;12.80;99.90;;;;;;4936752;29;20034;-74
2023/05/15 05:20:40;;;;;;;7.57;6.40;;;12.90;99.90;;;;;;4938683;29;20106;-75
2023/05/15 05:23:06;;;;;;;9.73;6.93;;;12.90;99.90;;;;;;4938137;29;20028;-75
2023/05/15 05:25:31;;;;;;;9.93;6.93;;;12.90;99.90;;;;;;4937996;29;20032;-75
2023/05/15 05:27:57;;;;;;;9.20;7.43;;;12.90;99.90;;;;;;4937569;29;20051;-75
2023/05/15 05:30:22;;;;;;;9.13;6.37;;;12.80;99.90;;;;;;4937590;29;20157;-75
2023/05/15 05:32:48;;;;;;;8.70;6.77;;;12.90;99.90;;;;;;4938255;29;20023;-76
2023/05/15 05:35:13;;;;;;;18.93;8.90;;;13.00;99.90;;;;;;4938157;29;20474;-75
2023/05/15 05:37:39;;;;;;;10.47;6.67;;;13.00;99.90;;;;;;4937956;29;20030;-75
2023/05/15 05:40:07;;;;;;;8.03;6.17;;;13.00;99.90;;;;;;4938348;29;20028;-74
2023/05/15 05:42:33;;;;;;;10.85;7.45;;;13.10;99.90;;;;;;4936811;29;20028;-72
2023/05/15 05:44:58;;;;;;;8.70;5.97;;;13.20;99.90;;;;;;4937515;29;20031;-75
2023/05/15 05:47:24;;;;;;;9.82;6.32;;;13.30;99.90;;;;;;4936370;29;20030;-69
2023/05/15 05:49:50;;;;;;;7.13;5.93;;;13.40;99.90;;;;;;4937917;29;20103;-70
2023/05/15 05:52:15;;;;;;;8.95;5.18;;;13.50;99.90;;;;;;4936104;29;20020;-74
2023/05/15 05:54:41;;;;;;;8.40;5.77;;;13.80;99.90;;;;;;4935697;29;20424;-75
2023/05/15 05:57:08;;;;;;;9.63;5.60;;;14.00;99.90;;;;;;4937123;29;20103;-75
2023/05/15 05:59:34;;;;;;;8.40;5.40;;;14.10;99.90;;;;;;4942880;29;20034;-74
2023/05/15 06:02:00;;;;;;;6.03;4.78;;;14.50;99.90;;;;;;4946094;28;20039;-75
2023/05/15 06:04:25;;;;;;;8.52;4.78;;;14.50;99.90;;;;;;4952384;29;20471;-74
2023/05/15 06:06:52;;;;;;;7.87;4.93;;;14.60;99.90;;;;;;4955576;29;20039;-74
2023/05/15 06:09:18;;;;;;;5.80;4.80;;;14.70;99.90;;;;;;4954282;29;20023;-73
2023/05/15 06:11:44;;;;;;;7.23;4.90;;;14.80;99.90;;;;;;4955630;29;20415;-74
2023/05/15 06:14:10;;;;;;;6.75;4.93;;;14.90;99.90;;;;;;4954279;29;20066;-74
2023/05/15 06:16:35;;;;;;;5.78;4.88;;;14.90;99.90;;;;;;4955566;29;20051;-74
2023/05/15 06:19:01;;;;;;;6.40;4.80;;;15.10;99.90;;;;;;4954643;29;20035;-75
2023/05/15 06:21:26;;;;;;;6.20;4.53;;;15.20;99.90;;;;;;4955365;29;20070;-75
2023/05/15 06:23:52;;;;;;;6.23;4.57;;;15.30;99.90;;;;;;4954138;29;20370;-74
2023/05/15 06:26:17;;;;;;;6.50;4.70;;;15.30;99.90;;;;;;4954052;29;20031;-74
2023/05/15 06:28:43;;;;;;;6.40;4.27;;;15.30;99.90;;;;;;4955425;29;20159;-74
2023/05/15 06:31:09;;;;;;;5.67;4.50;;;15.30;99.90;;;;;;4955154;29;20267;-74
2023/05/15 06:33:34;;;;;;;8.32;4.38;;;15.20;99.90;;;;;;4954206;29;20034;-75
2023/05/15 06:36:00;;;;;;;4.87;4.33;;;15.30;99.90;;;;;;4954160;29;20113;-74
2023/05/15 06:38:26;;;;;;;7.28;4.10;;;15.40;99.90;;;;;;4955192;28;20085;-74
2023/05/15 06:40:51;;;;;;;5.80;4.33;;;15.40;99.90;;;;;;4956526;28;20106;-74
2023/05/15 06:43:17;;;;;;;6.73;4.83;;;15.40;99.90;;;;;;4957963;29;20067;-73
2023/05/15 06:45:42;;;;;;;6.73;4.03;;;15.50;99.90;;;;;;4959270;28;20097;-74
2023/05/15 06:48:08;;;;;;;5.83;4.17;;;15.60;99.90;;;;;;4959039;28;20065;-74
2023/05/15 06:50:33;;;;;;;5.65;3.90;;;15.50;99.90;;;;;;4959602;28;20027;-74
2023/05/15 06:53:00;;;;;;;5.77;4.20;;;15.50;99.90;;;;;;4958761;29;20035;-76
2023/05/15 06:55:25;;;;;;;;;;;15.40;99.90;;;;;;4959211;29;20271;-75
2023/05/15 06:57:51;;;;;;;4.30;3.42;;;15.50;99.90;;;;;;4959389;28;20272;-74
2023/05/15 07:00:16;;;;;;;5.30;3.90;;;15.60;99.90;;;;;;4959275;28;20082;-75
2023/05/15 07:02:42;;;;;;;5.38;3.67;;;15.70;99.90;;;;;;4958950;28;20179;-75
2023/05/15 07:05:09;;;;;;;7.15;4.20;;;15.70;99.90;;;;;;4958368;28;20035;-74
2023/05/15 07:07:34;;;;;;;7.20;4.53;;;15.80;99.90;;;;;;4957204;29;20027;-74
2023/05/15 07:10:00;;;;;;;7.53;5.68;;;15.80;99.90;;;;;;4957355;29;20029;-74
2023/05/15 07:12:26;;;;;;;6.20;4.03;;;15.90;99.90;;;;;;4957323;29;20074;-75
2023/05/15 07:14:51;;;;;;;7.80;4.03;;;16.00;99.90;;;;;;4957459;29;20062;-74
2023/05/15 07:17:18;;;;;;;6.20;4.00;;;16.20;99.90;;;;;;4957225;29;20038;-74
2023/05/15 07:19:43;;;;;;;7.30;3.75;;;16.50;99.90;;;;;;4958630;28;20019;-75
2023/05/15 07:22:09;;;;;;;5.07;3.95;;;16.60;99.90;;;;;;4958509;28;20439;-74
2023/05/15 07:24:35;;;;;;;5.57;3.75;;;16.60;99.90;;;;;;4957058;29;20038;-75
2023/05/15 07:27:00;;;;;;;6.03;4.03;;;16.70;99.90;;;;;;4956803;29;20084;-75
2023/05/15 07:29:26;;;;;;;4.68;3.75;;;16.70;99.90;;;;;;4957287;29;20027;-75
2023/05/15 07:31:52;;;;;;;6.00;4.18;;;16.80;99.90;;;;;;4956362;29;20503;-74
2023/05/15 07:34:17;;;;;;;5.43;3.65;;;16.80;99.90;;;;;;4956744;29;20033;-75
2023/05/15 07:36:43;;;;;;;6.43;3.67;;;16.80;99.90;;;;;;4956705;29;20499;-74
2023/05/15 07:39:09;;;;;;;5.20;3.92;;;16.80;99.90;;;;;;4958301;28;20027;-75
2023/05/15 07:41:34;;;;;;;4.90;3.80;;;16.90;99.90;;;;;;4956760;29;20511;-74
2023/05/15 07:44:00;;;;;;;7.03;4.07;;;16.90;99.90;;;;;;4956851;29;20396;-74
2023/05/15 07:46:25;;;;;;;4.03;3.43;;;17.00;99.90;;;;;;4958110;28;20472;-75
2023/05/15 07:48:51;;;;;;;4.40;3.80;;;17.00;99.90;;;;;;4957382;29;20267;-75
2023/05/15 07:51:16;;;;;;;8.37;3.57;;;17.10;99.90;;;;;;4956106;28;20273;-75
2023/05/15 07:53:42;;;;;;;9.80;3.30;;;17.10;99.90;;;;;;4959803;28;20058;-74
2023/05/15 07:56:08;;;;;;;4.63;3.72;;;17.20;99.90;;;;;;4958091;28;20346;-74
2023/05/15 07:58:35;;;;;;;5.45;3.47;;;17.70;99.90;;;;;;4956570;29;20484;-75
2023/05/15 08:01:01;;;;;;;6.07;3.28;;;18.80;99.90;;;;;;4957340;28;20031;-76
2023/05/15 08:03:27;;;;;;;4.15;3.15;;;20.60;99.90;;;;;;4957855;28;20109;-75
2023/05/15 08:05:52;;;;;;;4.80;3.13;;;22.50;99.90;;;;;;4956238;29;20038;-75
2023/05/15 08:08:18;;;;;;;4.18;2.90;;;22.60;98.40;;;;;;4957577;28;20020;-74
2023/05/15 08:10:43;;;;;;;5.38;3.10;;;22.00;98.80;;;;;;4956091;29;20034;-75
2023/05/15 08:13:09;;;;;;;7.45;3.28;;;21.30;99.90;;;;;;4956066;29;20023;-75
2023/05/15 08:15:34;;;;;;;7.07;3.25;;;20.90;99.90;;;;;;4956014;29;20171;-76
2023/05/15 08:18:00;;;;;;;4.25;3.17;;;20.70;99.90;;;;;;4955803;29;20059;-75
2023/05/15 08:20:26;;;;;;;3.60;3.28;;;20.90;99.90;;;;;;4956173;29;20035;-76
2023/05/15 08:22:51;;;;;;;4.97;3.60;;;21.00;99.90;;;;;;4956154;29;20538;-75
2023/05/15 08:25:17;;;;;;;3.45;2.97;;;21.00;99.90;;;;;;4957332;28;20035;-75
2023/05/15 08:27:42;;;;;;;3.35;3.00;;;21.20;99.90;;;;;;4955976;29;20020;-74
2023/05/15 08:30:08;;;;;;;3.90;2.97;;;21.30;99.70;;;;;;4957365;28;20027;-75
2023/05/15 08:32:34;;;;;;;4.68;3.05;;;21.70;99.10;;;;;;4957266;28;20159;-75
2023/05/15 08:34:59;;;;;;;4.32;2.45;;;22.70;98.00;;;;;;4956834;29;20020;-75
2023/05/15 08:37:25;;;;;;;;;;;24.00;95.00;;;;;;4956532;29;20357;-75
2023/05/15 08:39:50;;;;;;;2.58;2.13;;;24.60;93.20;;;;;;4957178;28;19914;-76
2023/05/15 08:42:26;;;;;;;2.75;2.50;;;26.10;91.60;;;;;;4955678;29;20055;-75
2023/05/15 08:44:52;;;;;;;5.13;2.75;;;27.60;88.10;;;;;;4957550;28;20445;-75
2023/05/15 08:47:18;;;;;;;3.97;2.78;;;27.70;85.70;;;;;;4957441;28;20102;-76
2023/05/15 08:50:14;;;;;;;3.72;2.80;;;28.60;81.90;;;;;;4957520;28;20019;-76
2023/05/15 08:52:46;;;;;;;3.90;2.75;;;30.20;78.10;;;;;;4953854;29;20110;-75
2023/05/15 08:55:13;;;;;;;4.38;2.50;;;31.30;74.10;;;;;;4956973;28;20027;-75
2023/05/15 08:57:40;;;;;;;4.35;3.03;;;32.50;70.60;;;;;;4955419;29;20380;-74
2023/05/15 09:00:08;;;;;;;5.47;2.50;;;32.30;68.10;;;;;;4955404;29;20023;-75
2023/05/15 09:02:37;;;;;;;2.80;2.60;;;31.10;68.80;;;;;;4954530;28;20046;-75
2023/05/15 09:05:08;;;;;;;4.35;2.30;;;32.00;67.80;;;;;;4956218;28;20042;-76
2023/05/15 09:07:34;;;;;;;4.40;2.10;;;33.00;66.10;;;;;;4971762;28;20030;-74
2023/05/15 09:10:02;;;;;;;4.93;2.10;;;33.30;64.40;;;;;;4971204;28;20024;-76
2023/05/15 09:12:31;;;;;;;2.95;2.00;;;33.90;63.10;;;;;;4956464;28;20034;-76
2023/05/15 09:15:16;;;;;;;2.88;2.15;;;34.50;60.80;;;;;;4956453;28;20492;-75
2023/05/15 09:17:43;;;;;;;4.97;2.10;;;35.00;59.40;;;;;;4956291;28;20167;-75
2023/05/15 09:20:27;;;;;;;3.40;1.85;;;35.20;58.90;;;;;;4956241;28;20038;-77
2023/05/15 09:22:53;;;;;;;2.05;1.92;;;35.70;57.20;;;;;;4955044;29;20023;-76
2023/05/15 09:25:39;;;;;;;3.00;2.40;;;36.10;56.60;;;;;;4971085;28;20034;-76
2023/05/15 09:28:09;;;;;;;2.72;2.13;;;36.20;56.10;;;;;;4956501;28;20389;-76
2023/05/15 09:30:40;;;;;;;2.78;2.30;;;36.30;55.50;;;;;;4971053;28;20023;-76
2023/05/15 09:33:10;;;;;;;2.40;2.00;;;35.80;55.60;;;;;;4954770;29;20623;-76
2023/05/15 09:35:37;;;;;;;3.03;2.50;;;35.70;55.50;;;;;;4971174;28;20444;-76
2023/05/15 09:38:15;;;;;;;2.78;2.50;;;35.50;54.90;;;;;;4971343;28;20031;-75
2023/05/15 09:40:41;;;;;;;3.17;2.33;;;33.80;56.60;;;;;;4956578;28;20054;-76
2023/05/15 09:43:10;;;;;;;2.35;2.15;;;33.40;57.60;;;;;;4956479;28;20031;-75
2023/05/15 09:45:36;;;;;;;5.85;2.58;;;32.80;57.20;;;;;;4971026;28;20031;-77
2023/05/15 09:48:06;;;;;;;3.38;2.70;;;32.10;58.60;;;;;;4954518;29;20034;-76
2023/05/15 09:50:36;;;;;;;3.67;2.60;;;32.70;59.10;;;;;;4956109;28;20049;-76
2023/05/15 09:53:02;;;;;;;2.30;1.90;;;33.80;57.60;;;;;;4956017;28;20078;-76
2023/05/15 09:55:33;;;;;;;7.03;2.47;;;34.50;55.90;;;;;;4956016;28;20113;-75
2023/05/15 09:58:10;;;;;;;2.40;2.20;;;35.20;54.80;;;;;;4955925;28;20027;-76
2023/05/15 10:00:37;;;;;;;2.30;2.00;;;36.10;54.10;;;;;;4970368;28;20039;-77
2023/05/15 10:03:07;;;;;;;2.38;2.17;;;36.50;52.90;;;;;;4970720;28;20464;-75
2023/05/15 10:05:34;;;;;;;2.28;1.90;;;36.80;52.70;;;;;;4972288;28;20030;-74
2023/05/15 10:08:00;;;;;;;2.95;2.55;;;35.10;53.40;;;;;;4959462;28;20061;-76
2023/05/15 10:10:27;;;;;;;4.45;2.45;;;35.00;54.20;;;;;;4972359;28;20058;-76
2023/05/15 10:12:54;;;;;;;2.63;2.42;;;35.10;54.60;;;;;;4957190;28;20027;-75
2023/05/15 10:15:21;;;;;;;4.13;2.33;;;34.70;54.60;;;;;;4957545;28;20023;-75
2023/05/15 10:17:49;;;;;;;4.03;2.47;;;33.80;54.90;;;;;;4956701;28;20030;-75
2023/05/15 10:20:19;;;;;;;5.47;2.53;;;33.20;55.80;;;;;;4973189;28;20114;-75
2023/05/15 10:22:51;;;;;;;4.53;2.65;;;33.10;55.90;;;;;;4970876;28;20113;-76
2023/05/15 10:25:31;;;;;;;3.22;2.40;;;33.70;55.40;;;;;;4955703;28;20031;-76
2023/05/15 10:27:57;;;;;;;5.32;2.60;;;34.10;55.20;;;;;;4955770;28;20473;-75
2023/05/15 10:30:24;;;;;;;2.50;2.30;;;33.90;54.60;;;;;;4969954;28;20030;-75
2023/05/15 10:32:50;;;;;;;2.17;1.90;;;31.90;55.90;;;;;;4969758;28;20051;-75
2023/05/15 10:35:16;;;;;;;4.10;2.25;;;31.60;57.20;;;;;;4955231;28;20034;-75
2023/05/15 10:37:45;;;;;;;2.50;2.20;;;32.00;57.10;;;;;;4970087;28;20460;-75
2023/05/15 10:40:13;;;;;;;3.63;2.45;;;32.70;56.50;;;;;;4955145;28;20055;-76
2023/05/15 10:42:41;;;;;;;4.05;2.53;;;31.60;56.40;;;;;;4953890;29;20035;-75
2023/05/15 10:45:08;;;;;;;3.47;2.60;;;30.20;57.80;;;;;;4955274;28;20094;-75
2023/05/15 10:47:34;;;;;;;3.85;2.17;;;30.60;58.20;;;;;;4953615;29;20031;-76
2023/05/15 10:50:00;;;;;;;4.32;2.30;;;31.40;56.70;;;;;;4955079;28;20027;-75
2023/05/15 10:52:26;;;;;;;2.92;2.38;;;31.70;56.60;;;;;;4969824;28;20034;-75
2023/05/15 10:54:53;;;;;;;4.13;2.78;;;31.80;55.30;;;;;;4955371;28;20028;-75
2023/05/15 10:57:22;;;;;;;3.72;2.65;;;29.10;57.30;;;;;;4970055;28;20485;-75
2023/05/15 10:59:48;;;;;;;4.13;2.80;;;27.40;61.00;;;;;;4969851;28;20126;-75
2023/05/15 11:02:25;;;;;;;3.78;2.70;;;26.20;62.40;;;;;;4969603;28;20035;-75
2023/05/15 11:05:02;;;;;;;3.63;2.38;;;25.50;64.70;;;;;;4955248;28;20027;-75
2023/05/15 11:07:28;;;;;;;8.52;1.50;;;25.10;65.50;;;;;;4969747;28;20117;-75
2023/05/15 11:09:54;;;;;;;;;;;24.20;62.90;;;;;;4955616;28;20109;-74
2023/05/15 11:12:20;;;;;;;4.78;1.52;;;23.40;64.50;;;;;;4953696;29;20348;-75
2023/05/15 11:14:55;;;;;;;2.55;1.52;;;22.60;66.30;;;;;;4969517;28;20037;-74
2023/05/15 11:17:22;;;;;;;1.75;1.13;;;22.00;67.90;;;;;;4954558;28;20089;-73
2023/05/15 11:19:48;;;;;;;2.17;1.35;;;21.70;69.10;;;;;;4954998;28;20023;-75
2023/05/15 11:22:13;;;;;;;3.55;1.27;;;21.60;69.70;;;;;;4953612;29;20030;-74
2023/05/15 11:24:53;;;;;;;2.22;1.00;;;21.40;70.10;;;;;;4954659;28;20023;-75
2023/05/15 11:27:27;;;;;;;2.00;1.10;;;21.40;69.70;;;;;;4957920;28;20027;-75
2023/05/15 11:30:09;;;;;;;3.03;1.10;;;21.40;70.30;;;;;;4972938;28;20027;-75
2023/05/15 11:32:41;;;;;;;1.48;1.10;;;21.30;72.90;;;;;;4957842;28;20054;-75
2023/05/15 11:35:26;;;;;;;1.42;1.23;;;21.10;75.40;;;;;;4956913;29;20507;-74
2023/05/15 11:37:54;;;;;;;3.15;1.40;;;20.90;75.60;;;;;;4956832;29;20027;-75
2023/05/15 11:40:28;;;;;;;2.65;1.30;;;20.80;76.10;;;;;;4958096;29;20486;-74
2023/05/15 11:43:15;;;;;;;3.33;1.70;;;20.70;75.90;;;;;;4958121;28;20477;-74
2023/05/15 11:45:42;;;;;;;4.22;1.50;;;20.40;74.90;;;;;;4957105;29;20329;-74
2023/05/15 11:48:12;;;;;;;2.75;1.60;;;20.20;75.10;;;;;;4957881;28;20369;-75
2023/05/15 11:50:37;;;;;;;2.47;1.90;;;19.90;76.70;;;;;;4956794;29;20366;-75
2023/05/15 11:53:05;;;;;;;3.88;1.85;;;19.70;78.60;;;;;;4958340;28;20035;-75
2023/05/15 11:55:33;;;;;;;5.40;1.98;;;19.60;80.00;;;;;;4958467;28;20050;-75
2023/05/15 11:57:59;;;;;;;2.38;1.60;;;19.40;82.90;;;;;;4958424;28;20150;-75
2023/05/15 12:00:24;;;;;;;;;;;19.40;86.00;;;;;;4957397;29;20059;-75
2023/05/15 12:02:50;;;;;;;5.45;2.08;;;19.20;89.90;;;;;;4956718;29;20355;-75
2023/05/15 12:05:15;;;;;;;3.78;2.10;;;19.10;92.60;;;;;;4957886;28;20548;-75
2023/05/15 12:07:42;;;;;;;3.20;1.92;;;18.90;94.30;;;;;;4956672;29;20406;-74
2023/05/15 12:10:12;;;;;;;3.28;2.55;;;18.80;99.20;;;;;;4958136;28;20053;-74
2023/05/15 12:12:45;;;;;;;6.30;2.60;;;18.60;99.90;;;;;;4957767;28;20027;-75
2023/05/15 12:15:12;;;;;;;3.55;2.10;;;18.60;99.90;;;;;;4958102;28;20026;-74
2023/05/15 12:17:39;;;;;;;3.33;2.10;;;18.40;99.90;;;;;;4972335;28;20450;-75
2023/05/15 12:20:08;;;;;;;3.00;2.13;;;18.30;98.20;;;;;;4957656;28;20023;-74
2023/05/15 12:22:38;;;;;;;2.65;2.03;;;18.50;99.60;;;;;;4957721;28;20031;-74
2023/05/15 12:25:06;;;;;;;2.45;1.83;;;19.00;97.60;;;;;;4973044;28;20031;-75
2023/05/15 12:27:32;;;;;;;3.58;2.03;;;19.50;97.30;;;;;;4956951;29;20035;-75
2023/05/15 12:29:58;;;;;;;;;;;19.90;97.30;;;;;;4974689;28;20074;-74
2023/05/15 12:32:25;;;;;;;5.63;3.05;;;20.10;96.80;;;;;;4962519;28;19914;-73
2023/05/15 12:34:50;;;;;;;4.88;2.10;;;20.20;96.70;;;;;;4961256;29;20027;-73
2023/05/15 12:37:19;;;;;;;2.45;1.85;;;20.40;96.70;;;;;;4963664;28;20034;-74
2023/05/15 12:39:59;;;;;;;2.10;1.40;;;20.50;93.30;;;;;;4964822;28;20039;-75
2023/05/15 12:42:25;;;;;;;2.40;1.50;;;20.60;92.60;;;;;;4959210;28;20034;-75
2023/05/15 12:44:52;;;;;;;2.00;1.50;;;20.70;92.20;;;;;;4958997;29;20027;-75
2023/05/15 12:47:25;;;;;;;3.67;1.67;;;20.80;91.50;;;;;;4960215;28;20106;-76
2023/05/15 12:49:57;;;;;;;1.65;1.55;;;20.90;90.50;;;;;;4958332;29;20493;-75
2023/05/15 12:52:26;;;;;;;3.13;1.67;;;20.80;90.20;;;;;;4957763;29;20113;-75
2023/05/15 12:54:52;;;;;;;2.63;1.80;;;20.70;91.30;;;;;;4957626;29;20023;-74
2023/05/15 12:57:17;;;;;;;2.83;1.80;;;20.70;91.40;;;;;;4958408;29;20039;-74
2023/05/15 12:59:43;;;;;;;5.78;2.55;;;20.80;91.60;;;;;;4957124;29;20038;-76
2023/05/15 13:02:12;;;;;;;1.50;1.40;;;21.00;91.70;;;;;;4955390;29;20031;-75
2023/05/15 13:04:38;;;;;;;2.85;1.90;;;21.10;90.80;;;;;;4972494;28;20066;-74
2023/05/15 13:07:04;;;;;;;;;;;21.30;90.40;;;;;;4959150;28;20058;-75
2023/05/15 13:09:32;;;;;;;3.90;2.30;;;21.40;88.60;;;;;;4956962;29;20291;-75
2023/05/15 13:11:57;;;;;;;4.15;2.60;;;21.40;87.00;;;;;;4972805;28;20071;-74
2023/05/15 13:14:26;;;;;;;3.65;1.95;;;21.50;87.40;;;;;;4958344;28;20031;-74
2023/05/15 13:16:51;;;;;;;2.83;1.77;;;21.50;86.20;;;;;;4974796;28;20035;-75
2023/05/15 13:19:17;;;;;;;4.45;1.70;;;21.50;85.30;;;;;;4975312;28;20143;-74
2023/05/15 13:21:44;;;;;;;2.28;1.50;;;21.40;85.60;;;;;;4975187;28;20071;-75
2023/05/15 13:24:10;;;;;;;1.60;1.40;;;21.40;86.00;;;;;;4972244;28;20027;-75
2023/05/15 13:26:35;;;;;;;3.78;1.40;;;21.50;86.10;;;;;;4972944;28;20041;-75
2023/05/15 13:29:01;;;;;;;3.50;1.95;;;21.60;88.00;;;;;;4954293;28;20046;-74
2023/05/15 13:31:27;;;;;;;3.22;1.90;;;21.60;87.50;;;;;;4940867;29;20118;-74
2023/05/15 13:33:52;;;;;;;3.72;1.70;;;21.60;87.50;;;;;;4957428;28;20035;-75
2023/05/15 13:36:18;;;;;;;2.00;1.50;;;21.70;87.80;;;;;;4955224;29;20038;-74
2023/05/15 13:38:43;;;;;;;2.65;1.52;;;21.80;87.40;;;;;;4955158;28;20039;-75
2023/05/15 13:41:09;;;;;;;2.40;1.50;;;21.70;87.20;;;;;;4941601;29;20064;-74
2023/05/15 13:43:34;;;;;;;3.95;1.50;;;21.50;89.10;;;;;;4954174;29;20074;-74
2023/05/15 13:46:00;;;;;;;3.00;1.70;;;21.30;89.70;;;;;;4955290;29;20111;-73
2023/05/15 13:48:25;;;;;;;2.47;2.08;;;21.20;90.30;;;;;;4953205;28;20035;-74
2023/05/15 13:50:51;;;;;;;3.78;1.83;;;21.30;90.50;;;;;;4954194;29;20026;-74
2023/05/15 13:53:17;;;;;;;2.55;1.80;;;21.30;90.40;;;;;;4939161;29;20050;-74
2023/05/15 13:55:44;;;;;;;3.55;1.50;;;21.30;89.60;;;;;;4956412;28;20027;-74
2023/05/15 13:58:13;;;;;;;3.97;1.67;;;21.10;89.00;;;;;;4951356;29;20061;-74
2023/05/15 14:00:41;;;;;;;4.60;2.35;;;20.70;92.80;;;;;;4941096;29;20031;-74
2023/05/15 14:03:06;;;;;;;11.40;4.18;;;20.10;96.90;;;;;;4953031;28;20019;-74
2023/05/15 14:05:32;;;;;;;12.45;4.60;;;19.40;99.90;;;;;;4950034;29;20034;-74
2023/05/15 14:07:58;;;;;;;10.40;4.45;;;18.90;99.90;;;;;;4954547;29;20034;-74
2023/05/15 14:10:24;;;;;;;8.65;3.28;;;18.20;99.90;;;;;;4951227;29;20028;-75
2023/05/15 14:12:49;;;;;;;8.32;3.80;;;17.50;99.90;;;;;;4936827;29;20068;-75
2023/05/15 14:15:15;;;;;;;5.73;4.30;;;17.20;99.90;;;;;;4951212;29;20024;-74
2023/05/15 14:17:41;;;;;;;5.95;4.00;;;17.10;99.90;;;;;;4953912;28;20287;-73
2023/05/15 14:20:11;;;;;;;5.55;4.15;;;17.00;99.90;;;;;;4937190;29;20047;-74
2023/05/15 14:22:37;;;;;;;6.70;4.32;;;17.00;99.90;;;;;;4953158;29;20114;-70
2023/05/15 14:25:04;;;;;;;8.02;4.40;;;17.10;99.90;;;;;;4953291;29;20397;-72
2023/05/15 14:27:29;;;;;;;6.15;3.75;;;17.30;99.90;;;;;;4938751;29;20036;-73
2023/05/15 14:29:55;;;;;;;5.55;3.60;;;17.40;99.90;;;;;;4938842;29;20032;-72
2023/05/15 14:32:22;;;;;;;4.82;3.92;;;17.50;99.90;;;;;;4939904;29;20083;-73
2023/05/15 14:34:48;;;;;;;6.07;4.50;;;17.70;99.90;;;;;;4939050;29;20079;-75
2023/05/15 14:37:13;;;;;;;5.68;4.40;;;18.00;99.90;;;;;;4954596;29;20065;-74
2023/05/15 14:39:39;;;;;;;5.63;3.80;;;18.30;99.90;;;;;;4952974;29;20079;-75
2023/05/15 14:42:05;;;;;;;4.32;3.30;;;18.70;99.90;;;;;;4937040;29;20474;-73
2023/05/15 14:44:31;;;;;;;7.15;3.90;;;18.90;99.90;;;;;;4949786;29;20036;-72
2023/05/15 14:47:11;;;;;;;5.40;3.13;;;19.10;99.90;;;;;;4943061;29;20438;-72
2023/05/15 14:49:37;;;;;;;4.00;3.03;;;19.20;99.90;;;;;;4942249;28;20047;-76
2023/05/15 14:52:05;;;;;;;3.85;3.20;;;19.30;99.90;;;;;;4937734;29;20058;-74
2023/05/15 14:54:30;;;;;;;4.07;3.13;;;19.20;99.90;;;;;;4955247;28;20042;-67
2023/05/15 14:56:56;;;;;;;4.07;3.60;;;19.20;99.90;;;;;;4955442;28;20098;-71
2023/05/15 14:59:23;;;;;;;6.30;3.10;;;19.20;99.90;;;;;;4955366;28;20047;-70
2023/05/15 15:01:48;;;;;;;7.63;3.70;;;19.20;99.90;;;;;;4952177;28;20036;-73
2023/05/15 15:04:14;;;;;;;4.68;3.47;;;19.10;99.90;;;;;;4958662;28;20038;-71
2023/05/15 15:06:40;;;;;;;5.35;3.17;;;19.10;99.90;;;;;;4957674;29;20035;-75
2023/05/15 15:09:05;;;;;;;5.78;3.47;;;19.30;99.90;;;;;;4974210;28;20023;-75
2023/05/15 15:11:31;;;;;;;4.30;3.30;;;19.40;99.90;;;;;;4974169;28;20100;-75
2023/05/15 15:13:57;;;;;;;4.75;3.38;;;19.40;99.90;;;;;;4959024;28;20027;-74
2023/05/15 15:16:22;;;;;;;3.85;3.10;;;19.40;99.90;;;;;;4958008;29;20031;-69
2023/05/15 15:18:48;;;;;;;4.38;3.35;;;19.40;99.90;;;;;;4957690;29;20023;-69
2023/05/15 15:21:13;;;;;;;5.82;3.47;;;19.30;99.90;;;;;;4958511;29;20035;-73
2023/05/15 15:23:39;;;;;;;3.78;3.38;;;19.30;99.90;;;;;;4959973;29;20062;-73
2023/05/15 15:26:04;;;;;;;3.90;3.50;;;19.30;99.90;;;;;;4960479;29;20028;-72
2023/05/15 15:28:32;;;;;;;4.97;3.45;;;19.20;99.90;;;;;;4960152;28;20078;-74
2023/05/15 15:31:01;;;;;;;4.53;3.13;;;19.30;99.90;;;;;;4960070;29;20027;-72
2023/05/15 15:33:27;;;;;;;7.70;5.28;;;19.50;99.90;;;;;;4960562;28;20023;-73
2023/05/15 15:35:55;;;;;;;3.80;2.97;;;19.60;99.90;;;;;;4959839;28;20046;-73
2023/05/15 15:38:21;;;;;;;3.53;3.20;;;19.60;99.90;;;;;;4973909;28;20134;-73
2023/05/15 15:40:47;;;;;;;3.50;2.55;;;19.50;99.90;;;;;;4957558;29;20121;-73
2023/05/15 15:43:12;;;;;;;4.78;2.90;;;19.40;99.90;;;;;;4958594;28;20032;-73
2023/05/15 15:45:38;;;;;;;6.32;3.33;;;19.40;99.90;;;;;;4973257;28;20024;-72
2023/05/15 15:48:03;;;;;;;3.22;2.92;;;19.20;99.90;;;;;;4956927;29;20027;-72
2023/05/15 15:50:29;;;;;;;4.88;3.10;;;19.10;99.90;;;;;;4959290;28;20023;-72
2023/05/15 15:52:55;;;;;;;4.00;2.90;;;19.10;99.90;;;;;;4957190;29;20024;-73
2023/05/15 15:55:20;;;;;;;5.07;4.05;;;19.10;99.90;;;;;;4958330;28;20019;-72
2023/05/15 15:57:46;;;;;;;5.18;3.20;;;19.30;99.90;;;;;;4959313;28;20027;-73
2023/05/15 16:00:12;;;;;;;4.30;2.90;;;19.30;99.90;;;;;;4953207;28;20465;-69
2023/05/15 16:05:13;;;;;;;4.50;3.53;;;19.10;99.90;;;;;;4996744;23;19929;-72
2023/05/15 16:07:39;;;;;;;4.68;3.60;;;19.00;99.90;;;;;;4918310;29;20036;-73
2023/05/15 16:10:06;;;;;;;6.93;3.63;;;19.00;99.90;;;;;;4919845;29;20029;-71
2023/05/15 16:12:32;;;;;;;4.53;3.47;;;18.90;99.90;;;;;;4917860;29;20031;-71
2023/05/15 16:14:58;;;;;;;5.38;3.30;;;18.80;99.90;;;;;;4922875;29;20028;-70
2023/05/15 16:17:24;;;;;;;7.55;3.53;;;18.70;99.90;;;;;;4929383;29;20036;-70
2023/05/15 16:19:49;;;;;;;5.38;3.58;;;18.60;99.90;;;;;;4931888;29;20025;-70
2023/05/15 16:22:16;;;;;;;6.05;3.80;;;18.50;99.90;;;;;;4927243;29;20578;-68
2023/05/15 16:24:41;;;;;;;5.63;3.55;;;18.50;99.90;;;;;;4919381;29;20091;-68
2023/05/15 16:27:07;;;;;;;6.70;3.70;;;18.50;99.90;;;;;;4917864;29;20445;-67
2023/05/15 16:29:32;;;;;;;7.07;3.60;;;18.50;99.90;;;;;;4919485;29;20744;-70
2023/05/15 16:31:58;;;;;;;4.25;3.47;;;18.60;99.90;;;;;;4917767;29;20268;-68
2023/05/15 16:34:24;;;;;;;5.32;4.28;;;18.70;99.90;;;;;;4918779;29;20032;-66
2023/05/15 16:36:50;;;;;;;6.18;4.40;;;18.70;99.90;;;;;;4931383;29;20027;-68
2023/05/15 16:39:15;;;;;;;7.07;4.00;;;18.70;99.90;;;;;;4937994;29;20415;-66
2023/05/15 16:41:41;;;;;;;7.15;4.97;;;18.80;99.90;;;;;;4938043;29;20036;-68
2023/05/15 16:44:09;;;;;;;7.57;4.47;;;18.80;99.90;;;;;;4938118;29;20042;-68
2023/05/15 16:46:36;;;;;;;7.07;5.03;;;18.80;99.90;;;;;;4936613;29;20035;-70
2023/05/15 16:49:02;;;;;;;5.78;5.13;;;18.80;99.90;;;;;;4936580;29;20031;-69